Weather observations for the past three days for
Madison, Madison-Lac Qui Parle County Airport
Imperial (Metric)
Date Time (cdt) Wind (mph) Vis. (mi.) Weather Sky Cond. Temperature (ºF) Relative Humidity Wind Chill (°F) Heat Index (°F) Pressure Precipitation (in)
Air Dwpt 6 hour altimeter (in) sea level (mb) 1 hr 3 hr 6 hr
Max. Min.
10 07:35 NW 5 10.00 Fair CLR 41 28.4 61% 38 30.13 0.0
10 07:15 NW 3 10.00 Fair CLR 39.2 26.6 61% 30.12 0.0
10 06:55 NW 3 10.00 Fair CLR 37.4 24.8 60% 30.11 0.0
10 06:35 N 6 10.00 Fair CLR 35.6 24.8 65% 31 30.11 0.0
10 06:15 N 3 10.00 Fair CLR 33.8 24.8 70% 30.1 0.0
10 05:55 NW 3 10.00 Fair CLR 33.8 24.8 70% 30.09 0.0
10 05:35 Calm 10.00 Fair CLR 33.8 24.8 70% 30.08 0.0
10 05:15 W 6 10.00 Fair CLR 33.8 26.6 75% 29 30.07 0.0
10 04:55 SW 6 10.00 Fair CLR 32 24.8 75% 27 30.07 0.0
10 04:35 SW 6 10.00 Fair CLR 33.8 24.8 70% 29 30.07 0.0
10 04:15 SW 5 10.00 Fair CLR 33.8 26.6 75% 30 30.07 0.0
10 03:55 Calm 10.00 Fair CLR 35.6 26.6 70% 30.06 0.0
10 03:35 SW 3 10.00 Fair CLR 33.8 26.6 75% 30.07 0.0
10 03:15 W 3 10.00 Fair CLR 35.6 24.8 65% 30.07 0.0
10 02:55 Calm 10.00 Fair CLR 37.4 23 56% 30.07 0.0
10 02:35 Calm 10.00 Fair CLR 35.6 24.8 65% 30.06 0.0
10 02:15 W 5 10.00 Fair CLR 35.6 24.8 65% 32 30.05 0.0
10 01:55 W 6 10.00 Fair CLR 37.4 24.8 60% 33 30.05 0.0
10 01:35 W 7 10.00 Fair CLR 39.2 24.8 56% 35 30.05 0.0
10 01:15 W 5 10.00 Fair CLR 37.4 24.8 60% 34 30.05 0.0
10 00:55 W 6 10.00 Fair CLR 37.4 24.8 60% 33 30.05 0.0
10 00:35 W 3 10.00 Fair CLR 37.4 24.8 60% 30.04 0.0
10 00:15 W 5 10.00 Fair CLR 39.2 26.6 61% 36 30.04 0.0
09 23:55 W 3 10.00 Fair CLR 41 24.8 53% 30.04 0.0
09 23:35 W 6 10.00 Fair CLR 41 24.8 53% 38 30.04 0.0
09 23:15 Calm 10.00 Fair CLR 44.6 23 43% 30.04 0.0
09 22:55 Calm 10.00 Fair CLR 44.6 21.2 39% 30.03 0.0
09 22:35 Calm 10.00 Fair CLR 46.4 19.4 34% 30.03 0.0
09 22:15 N 6 10.00 Fair CLR 44.6 21.2 39% 42 30.03 0.0
09 21:55 N 6 10.00 Fair CLR 48.2 19.4 32% 46 30.02 0.0
09 21:35 N 7 10.00 Fair CLR 46.4 19.4 34% 43 30.01 0.0
09 21:15 N 8 10.00 Fair CLR 48.2 19.4 32% 45 30 0.0
09 20:55 N 8 10.00 Fair CLR 50 19.4 30% 47 29.99 0.0
09 20:35 N 9 10.00 Fair CLR 53.6 17.6 24% 29.99 0.0
09 20:15 N 12 10.00 Fair CLR 53.6 17.6 24% 29.98 0.0
09 19:55 NW 10 G 18 10.00 Fair CLR 55.4 19.4 24% 29.97 0.0
09 19:35 N 17 10.00 Fair CLR 55.4 17.6 23% 29.97 0.0
09 19:15 N 16 G 23 10.00 Fair CLR 57.2 17.6 21% 29.96 0.0
09 18:55 NW 15 G 23 10.00 Fair CLR 57.2 17.6 21% 29.96 0.0
09 18:35 NW 17 G 23 10.00 Fair CLR 57.2 19.4 23% 29.95 0.0
09 18:15 NW 16 G 28 10.00 Fair CLR 57.2 17.6 21% 29.95 0.0
09 17:55 NW 18 G 25 10.00 Fair CLR 57.2 19.4 23% 29.94 0.0
09 17:35 N 18 G 29 10.00 Fair CLR 57.2 19.4 23% 29.94 0.0
09 17:15 N 15 G 26 10.00 Fair CLR 57.2 19.4 23% 29.94 0.0
09 16:55 N 21 G 25 10.00 Fair and Breezy CLR 57.2 19.4 23% 29.93 0.0
09 16:35 NW 16 G 25 10.00 Fair CLR 57.2 21.2 25% 29.94 0.0
09 16:15 N 22 G 30 10.00 Fair and Breezy CLR 57.2 21.2 25% 29.94 0.0
09 15:55 NW 21 G 25 10.00 Fair and Breezy CLR 57.2 21.2 25% 29.94 0.0
09 15:35 NW 18 G 26 10.00 Fair CLR 57.2 21.2 25% 29.93 0.0
09 15:15 N 18 G 24 10.00 Fair CLR 57.2 23 27% 29.93 0.0
09 14:55 N 20 G 26 10.00 Fair CLR 55.4 21.2 26% 29.93 0.0
09 14:35 N 20 G 29 10.00 Fair CLR 57.2 23 27% 29.93 0.0
09 14:15 N 23 G 35 10.00 Fair and Breezy CLR 57.2 21.2 25% 29.93 0.0
09 13:55 N 22 G 30 10.00 Fair and Breezy CLR 55.4 21.2 26% 29.93 0.0
09 13:35 N 21 G 31 10.00 Fair and Breezy CLR 55.4 21.2 26% 29.92 0.0
09 13:15 NW 25 G 30 10.00 Fair and Breezy CLR 55.4 24.8 31% 29.91 0.0
09 12:55 N 20 G 32 10.00 Fair CLR 55.4 24.8 31% 29.91 0.0
09 12:35 N 25 G 36 10.00 Fair and Breezy CLR 55.4 26.6 33% 29.9 0.0
09 12:15 N 21 G 31 10.00 Fair and Breezy CLR 55.4 24.8 31% 29.91 0.0
09 11:55 N 18 G 29 10.00 Fair CLR 53.6 24.8 33% 29.9 0.0
09 11:35 N 21 G 25 10.00 Fair and Breezy CLR 53.6 26.6 35% 29.89 0.0
09 11:15 N 21 G 29 10.00 Fair and Breezy CLR 53.6 26.6 35% 29.89 0.0
09 10:55 N 17 G 24 10.00 Fair CLR 53.6 28.4 38% 29.88 0.0
09 10:35 N 18 G 26 10.00 Fair CLR 53.6 28.4 38% 29.88 0.0
09 10:15 N 21 G 25 10.00 Fair and Breezy CLR 53.6 28.4 38% 29.86 0.0
09 09:55 N 18 G 24 10.00 Fair CLR 51.8 32 47% 29.86 0.0
09 09:35 N 17 10.00 Fair CLR 51.8 37.4 58% 29.85 0.0
09 09:15 N 20 10.00 Fair CLR 50 35.6 58% 44 29.85 0.0
09 08:55 N 18 G 25 10.00 Fair CLR 48.2 37.4 66% 42 29.84 0.0
09 08:35 N 17 G 26 10.00 Fair CLR 48.2 37.4 66% 42 29.83 0.0
09 08:15 N 16 10.00 Fair CLR 48.2 39.2 71% 43 29.82 0.0
09 07:55 NW 13 10.00 Fair CLR 46.4 41 82% 41 29.81 0.0
09 07:35 NW 13 10.00 Fair CLR 46.4 41 82% 41 29.8 0.0
09 07:15 N 14 10.00 Fair CLR 46.4 41 82% 41 29.79 0.0
09 06:55 N 13 10.00 Fair CLR 46.4 41 82% 41 29.78 0.0
09 06:35 N 15 10.00 Partly Cloudy SCT015 46.4 41 82% 41 29.77 0.0
09 06:15 N 15 10.00 Partly Cloudy SCT013 46.4 42.8 87% 41 29.75 0.0
09 05:55 NW 16 G 21 10.00 Partly Cloudy SCT015 48.2 42.8 82% 43 29.74 0.0
09 05:35 NW 12 10.00 Partly Cloudy SCT070 48.2 44.6 87% 44 29.72 0.0
09 05:15 W 9 10.00 Mostly Cloudy SCT060 BKN070 BKN090 48.2 44.6 87% 45 29.71 0.0
09 04:55 W 8 10.00 Light Rain SCT031 SCT047 SCT060 48.2 44.6 87% 45 29.71 0.0
09 04:35 W 13 10.00 Light Rain SCT033 SCT050 BKN060 48.2 42.8 82% 43 29.71 0.0
09 04:15 W 8 7.00 Light Rain SCT032 BKN050 OVC060 48.2 42.8 82% 45 29.7 0.0
09 03:55 W 6 10.00 Rain SCT048 BKN070 OVC090 48.2 42.8 82% 46 29.7 0.0
09 03:35 NW 7 10.00 Light Rain BKN100 50 41 71% 48 29.7 0.0
09 03:15 N 13 10.00 Partly Cloudy SCT110 50 41 71% 46 29.69 0.0
09 02:55 N 16 10.00 Mostly Cloudy BKN100 50 41 71% 45 29.69 0.0
09 02:35 N 20 10.00 Mostly Cloudy BKN110 50 35.6 58% 44 29.69 0.0
09 02:15 N 10 10.00 Fair CLR 48.2 32 54% 44 29.66 0.0
09 01:55 N 10 10.00 Partly Cloudy SCT100 48.2 30.2 50% 44 29.64 0.0
09 01:35 W 6 10.00 Partly Cloudy SCT100 48.2 30.2 50% 46 29.63 0.0
09 01:15 W 7 10.00 Partly Cloudy SCT110 51.8 30.2 44% 29.63 0.0
09 00:55 SW 9 10.00 Partly Cloudy SCT110 50 28.4 43% 47 29.63 0.0
09 00:35 SW 9 10.00 Fair CLR 48.2 28.4 46% 45 29.63 0.0
09 00:15 SW 8 10.00 Fair CLR 48.2 28.4 46% 45 29.64 0.0
08 23:55 SW 8 10.00 Fair CLR 48.2 28.4 46% 45 29.64 0.0
08 23:35 SW 8 10.00 Fair CLR 48.2 28.4 46% 45 29.65 0.0
08 23:15 SW 7 10.00 Fair CLR 48.2 28.4 46% 46 29.66 0.0
08 22:55 SW 9 10.00 Fair CLR 50 26.6 40% 47 29.67 0.0
08 22:35 SW 8 10.00 Fair CLR 50 26.6 40% 47 29.68 0.0
08 22:15 SW 7 10.00 Fair CLR 51.8 26.6 38% 29.68 0.0
08 21:55 W 3 10.00 Fair CLR 53.6 26.6 35% 29.68 0.0
08 21:35 W 3 10.00 Fair CLR 53.6 24.8 33% 29.68 0.0
08 21:15 NW 5 10.00 Fair CLR 59 24.8 27% 29.68 0.0
08 20:55 N 6 10.00 Fair CLR 57.2 24.8 29% 29.68 0.0
08 20:35 N 8 10.00 Fair CLR 60.8 23 23% 29.68 0.0
08 20:15 N 14 G 18 10.00 Fair CLR 62.6 24.8 24% 29.68 0.0
08 19:55 N 16 G 23 10.00 Fair CLR 64.4 23 21% 29.68 0.0
08 19:35 N 17 10.00 Fair CLR 64.4 21.2 19% 29.68 0.0
08 19:15 N 21 G 25 10.00 Fair and Breezy CLR 66.2 19.4 17% 29.67 0.0
08 18:55 N 17 G 25 10.00 Fair CLR 66.2 21.2 18% 29.67 0.0
08 18:35 N 22 G 25 10.00 Fair and Breezy CLR 68 19.4 16% 29.67 0.0
08 18:15 NW 20 G 28 10.00 Fair CLR 68 19.4 16% 29.67 0.0
08 17:55 NW 20 G 32 10.00 Fair CLR 69.8 17.6 13% 29.67 0.0
08 17:35 NW 24 G 29 10.00 Fair and Breezy CLR 69.8 17.6 13% 29.66 0.0
08 17:15 NW 23 G 33 10.00 Fair and Breezy CLR 69.8 17.6 13% 29.66 0.0
08 16:55 NW 18 G 35 10.00 Fair CLR 69.8 17.6 13% 29.66 0.0
08 16:35 NW 23 G 38 10.00 Fair and Breezy CLR 71.6 17.6 13% 29.65 0.0
08 16:15 NW 26 G 35 10.00 Fair and Windy CLR 71.6 21.2 15% 29.65 0.0
08 15:55 NW 22 G 36 10.00 Partly Cloudy and Breezy SCT090 69.8 24.8 18% 29.65 0.0
08 15:35 NW 18 G 30 10.00 Partly Cloudy SCT090 71.6 24.8 17% 29.66 0.0
08 15:15 NW 25 G 35 10.00 Partly Cloudy and Breezy SCT090 71.6 23 16% 29.66 0.0
08 14:55 W 26 G 33 10.00 Fair and Windy CLR 69.8 21.2 16% 29.66 0.0
08 14:35 W 20 G 35 10.00 Partly Cloudy SCT090 69.8 21.2 16% 29.67 0.0
08 14:15 NW 16 G 28 10.00 Partly Cloudy SCT090 69.8 24.8 18% 29.67 0.0
08 13:55 NW 18 G 28 10.00 Partly Cloudy SCT090 69.8 26.6 20% 29.67 0.0
08 13:35 NW 14 G 29 10.00 Partly Cloudy SCT090 69.8 24.8 18% 29.68 0.0
08 13:15 W 16 G 25 10.00 Partly Cloudy SCT090 69.8 24.8 18% 29.68 0.0
08 12:55 W 16 G 28 10.00 Fair CLR 69.8 23 17% 29.69 0.0
08 12:35 W 18 G 25 10.00 Fair CLR 68 24.8 20% 29.7 0.0
08 12:15 W 20 G 23 10.00 Partly Cloudy SCT090 66.2 17.6 15% 29.71 0.0
08 11:55 W 22 G 25 10.00 Partly Cloudy and Breezy SCT100 66.2 19.4 17% 29.72 0.0
08 11:35 W 20 G 26 10.00 Fair CLR 66.2 17.6 15% 29.71 0.0
08 11:15 W 17 G 25 10.00 Fair CLR 68 17.6 14% 29.72 0.0
08 10:55 W 15 G 21 10.00 Fair CLR 66.2 15.8 14% 29.73 0.0
08 10:35 W 14 G 22 10.00 Fair CLR 66.2 17.6 15% 29.73 0.0
08 10:15 W 15 G 20 10.00 Fair CLR 64.4 19.4 18% 29.74 0.0
08 09:55 W 6 10.00 Fair CLR 62.6 24.8 24% 29.75 0.0
08 09:35 W 6 10.00 Fair CLR 60.8 26.6 27% 29.76 0.0
08 09:15 Calm 10.00 Fair CLR 57.2 28.4 33% 29.76 0.0
08 08:55 NW 3 10.00 Fair CLR 55.4 28.4 36% 29.76 0.0
08 08:35 W 7 10.00 Fair CLR 53.6 26.6 35% 29.77 0.0
08 08:15 NW 6 10.00 Partly Cloudy SCT100 51.8 26.6 38% 29.77 0.0
08 07:55 W 6 10.00 Fair CLR 46.4 26.6 46% 44 29.77 0.0
08 07:35 W 5 10.00 Fair CLR 48.2 24.8 40% 47 29.77 0.0
08 07:15 W 3 10.00 Partly Cloudy SCT100 48.2 24.8 40% 29.77 0.0
08 06:55 W 3 10.00 Overcast OVC100 46.4 24.8 43% 29.77 0.0
08 06:35 SW 5 10.00 Overcast OVC100 44.6 24.8 46% 43 29.76 0.0
08 06:15 SW 6 10.00 Overcast OVC100 44.6 23 43% 42 29.76 0.0
08 05:55 SW 6 10.00 Mostly Cloudy BKN100 44.6 21.2 39% 42 29.76 0.0
08 05:35 SW 6 10.00 Partly Cloudy SCT100 42.8 21.2 42% 40 29.77 0.0
08 05:15 SW 3 10.00 Fair CLR 41 21.2 45% 29.77 0.0
08 04:55 SW 5 10.00 Fair CLR 41 23 49% 38 29.77 0.0
08 04:35 SW 7 10.00 Fair CLR 42.8 21.2 42% 39 29.77 0.0
08 04:15 SW 3 10.00 Fair CLR 41 23 49% 29.77 0.0
08 03:55 SW 5 10.00 Fair CLR 41 24.8 53% 38 29.77 0.0
08 03:35 SW 5 10.00 Fair CLR 41 23 49% 38 29.77 0.0
08 03:15 SW 5 10.00 Fair CLR 42.8 23 46% 41 29.78 0.0
08 02:55 SW 6 10.00 Fair CLR 42.8 21.2 42% 40 29.78 0.0
08 02:35 SW 6 10.00 Fair CLR 41 21.2 45% 38 29.79 0.0
08 02:15 SW 5 10.00 Fair CLR 41 21.2 45% 38 29.79 0.0
08 01:55 SW 5 10.00 Fair CLR 39.2 21.2 48% 36 29.8 0.0
08 01:35 SW 3 10.00 Fair CLR 39.2 23 52% 29.8 0.0
08 01:15 SW 6 10.00 Fair CLR 39.2 21.2 48% 36 29.8 0.0
08 00:55 S 8 10.00 Fair CLR 42.8 19.4 39% 39 29.8 0.0
08 00:35 S 8 10.00 Fair CLR 41 19.4 42% 36 29.8 0.0
08 00:15 S 7 10.00 Fair CLR 41 19.4 42% 37 29.81 0.0
07 23:55 S 5 10.00 Fair CLR 41 19.4 42% 38 29.81 0.0
07 23:35 SW 6 10.00 Fair CLR 42.8 21.2 42% 40 29.82 0.0
07 23:15 SW 6 10.00 Fair CLR 44.6 19.4 37% 42 29.82 0.0
07 22:55 S 5 10.00 Fair CLR 44.6 23 43% 43 29.82 0.0
07 22:35 S 5 10.00 Fair CLR 46.4 19.4 34% 45 29.82 0.0
07 22:15 SW 3 10.00 Fair CLR 48.2 26.6 43% 29.82 0.0
07 21:55 Calm 10.00 Fair CLR 48.2 17.6 29% 29.82 0.0
07 21:35 Calm 10.00 Fair CLR 51.8 15.8 24% 29.82 0.0
07 21:15 Calm 10.00 Fair CLR 55.4 10.4 16% 29.82 0.0
07 20:55 Calm 10.00 Fair CLR 55.4 10.4 16% 29.82 0.0
07 20:35 NW 3 10.00 Fair CLR 53.6 12.2 19% 29.82 0.0
07 20:15 NW 7 10.00 Fair CLR 55.4 15.8 21% 29.81 0.0
07 19:55 NW 6 10.00 Fair CLR 57.2 15.8 20% 29.81 0.0
07 19:35 NW 7 10.00 Fair CLR 57.2 14 18% 29.81 0.0
07 19:15 NW 10 G 16 10.00 Fair CLR 59 12.2 16% 29.81 0.0
07 18:55 NW 12 10.00 Fair CLR 60.8 10.4 13% 29.81 0.0
07 18:35 NW 13 G 18 10.00 Fair CLR 60.8 12.2 15% 29.82 0.0
07 18:15 W 12 G 21 10.00 Fair CLR 60.8 10.4 13% 29.82 0.0
07 17:55 W 9 G 20 10.00 Fair CLR 60.8 10.4 13% 29.82 0.0
07 17:35 NW 15 G 21 10.00 Fair CLR 60.8 10.4 13% 29.82 0.0
07 17:15 NW 10 G 21 10.00 Fair CLR 60.8 10.4 13% 29.82 0.0
07 16:55 NW 15 G 23 10.00 Fair CLR 60.8 8.6 12% 29.83 0.0
07 16:35 NW 10 G 22 10.00 Fair CLR 60.8 10.4 13% 29.83 0.0
07 16:15 NW 8 G 18 10.00 Fair CLR 60.8 14 16% 29.83 0.0
07 15:55 NW 14 G 22 10.00 Fair CLR 60.8 12.2 15% 29.83 0.0
07 15:35 NW 14 G 18 10.00 Fair CLR 60.8 15.8 17% 29.84 0.0
07 15:15 NW 7 G 23 10.00 Fair CLR 59 15.8 18% 29.85 0.0
07 14:55 NW 13 G 22 10.00 Fair CLR 60.8 12.2 15% 29.85 0.0
07 14:35 NW 7 G 20 10.00 Fair CLR 59 15.8 18% 29.85 0.0
07 14:15 W 10 G 22 10.00 Fair CLR 57.2 17.6 21% 29.86 0.0
07 13:55 N 7 G 10 10.00 Fair CLR 57.2 17.6 21% 29.86 0.0
07 13:35 N 14 G 18 10.00 Fair CLR 57.2 17.6 21% 29.87 0.0
07 13:15 Calm 10.00 Fair CLR 55.4 15.8 21% 29.87 0.0
07 12:55 W 12 G 18 10.00 Fair CLR 55.4 17.6 23% 29.88 0.0
07 12:35 W 8 G 17 10.00 Fair CLR 53.6 15.8 22% 29.89 0.0
07 12:15 W 6 G 17 10.00 Fair CLR 53.6 15.8 22% 29.89 0.0
07 11:55 NW 9 10.00 Fair CLR 53.6 17.6 24% 29.9 0.0
07 11:35 W 6 10.00 Fair CLR 53.6 17.6 24% 29.9 0.0
07 11:15 N 3 10.00 Fair CLR 53.6 21.2 28% 29.9 0.0
07 10:55 Calm 10.00 Fair CLR 51.8 17.6 26% 29.91 0.0
07 10:35 W 3 10.00 Fair CLR 51.8 21.2 30% 29.91 0.0
07 10:15 Calm 10.00 Fair CLR 50 19.4 30% 29.91 0.0
07 09:55 S 6 10.00 Fair CLR 50 21.2 32% 48 29.91 0.0
07 09:35 S 7 10.00 Fair CLR 48.2 21.2 34% 46 29.91 0.0
07 09:15 S 6 10.00 Fair CLR 48.2 21.2 34% 46 29.91 0.0
07 08:55 S 7 10.00 Fair CLR 46.4 21.2 37% 43 29.91 0.0
07 08:35 S 8 10.00 Fair CLR 44.6 23 43% 41 29.91 0.0
07 08:15 S 6 10.00 Fair CLR 42.8 24.8 49% 40 29.9 0.0
07 07:55 S 6 10.00 Fair CLR 41 24.8 53% 38 29.9 0.0
Date Time (cdt) Wind (mph) Vis. (mi.) Weather Sky Cond. Air Dwpt Max. Min. Relative Humidity Wind Chill (°F) Heat Index (°F) altimeter (in) sea level (mb) 1 hr 3 hr 6 hr
6 hour
Temperature (ºF) Pressure Precipitation (in)